createdAt,value
2022-11-10T00:00:19.320Z,14.52
2022-11-10T00:02:45.999Z,14.90
2022-11-10T00:05:13.747Z,13.93
2022-11-10T00:07:40.513Z,11.90
2022-11-10T00:10:07.639Z,11.40
2022-11-10T00:12:34.361Z,13.80
2022-11-10T00:15:19.335Z,15.13
2022-11-10T00:17:46.043Z,18.95
2022-11-10T00:20:13.007Z,16.23
2022-11-10T00:22:40.407Z,13.90
2022-11-10T00:25:07.809Z,12.00
2022-11-10T00:27:34.848Z,15.65
2022-11-10T00:30:01.242Z,16.58
2022-11-10T00:32:27.847Z,17.50
2022-11-10T00:34:54.239Z,16.25
2022-11-10T00:37:20.678Z,16.40
2022-11-10T00:39:47.161Z,15.30
2022-11-10T00:42:13.988Z,18.85
2022-11-10T00:44:40.445Z,14.80
2022-11-10T00:47:06.856Z,14.95
2022-11-10T00:49:33.219Z,17.80
2022-11-10T00:51:59.692Z,12.30
2022-11-10T00:54:26.506Z,15.70
2022-11-10T00:56:52.892Z,16.85
2022-11-10T00:59:19.401Z,16.77
2022-11-10T01:01:45.809Z,18.13
2022-11-10T01:04:12.213Z,13.02
2022-11-10T01:06:38.673Z,17.08
2022-11-10T01:09:05.237Z,14.40
2022-11-10T01:11:31.592Z,21.23
2022-11-10T01:13:58.211Z,13.50
2022-11-10T01:16:26.985Z,17.55
2022-11-10T01:18:56.576Z,19.13
2022-11-10T01:21:24.150Z,18.38
2022-11-10T01:23:50.853Z,20.50
2022-11-10T01:26:18.003Z,20.83
2022-11-10T01:28:44.525Z,16.70
2022-11-10T01:31:16.561Z,19.35
2022-11-10T01:33:43.273Z,17.67
2022-11-10T01:36:11.014Z,20.70
2022-11-10T01:38:39.179Z,20.70
2022-11-10T01:41:07.417Z,21.00
2022-11-10T01:43:34.092Z,18.02
2022-11-10T01:46:02.502Z,16.58
2022-11-10T01:49:00.987Z,21.92
2022-11-10T01:51:33.476Z,18.90
2022-11-10T01:54:03.088Z,25.15
2022-11-10T01:56:32.311Z,24.55
2022-11-10T01:59:04.451Z,19.02
2022-11-10T02:01:31.078Z,18.88
2022-11-10T02:03:59.795Z,19.33
2022-11-10T02:06:28.706Z,20.92
2022-11-10T02:08:55.910Z,22.10
2022-11-10T02:11:23.167Z,19.27
2022-11-10T02:13:49.600Z,20.08
2022-11-10T02:16:16.169Z,20.75
2022-11-10T02:18:42.525Z,24.40
2022-11-10T02:21:09.617Z,19.33
2022-11-10T02:23:36.182Z,20.33
2022-11-10T02:26:04.897Z,23.95
2022-11-10T02:28:36.320Z,22.13
2022-11-10T02:31:03.804Z,21.38
2022-11-10T02:33:30.198Z,23.17
2022-11-10T02:35:56.897Z,23.08
2022-11-10T02:38:23.502Z,21.67
2022-11-10T02:40:50.035Z,22.30
2022-11-10T02:43:17.438Z,22.73
2022-11-10T02:45:46.760Z,21.50
2022-11-10T02:48:14.718Z,26.40
2022-11-10T02:50:41.612Z,22.25
2022-11-10T02:53:08.123Z,25.92
2022-11-10T02:55:34.623Z,23.83
2022-11-10T02:58:01.072Z,25.02
2022-11-10T03:00:27.860Z,23.58
2022-11-10T03:02:58.170Z,25.42
2022-11-10T03:05:24.704Z,28.08
2022-11-10T03:07:58.164Z,28.20
2022-11-10T03:10:25.032Z,27.73
2022-11-10T03:12:58.606Z,26.88
2022-11-10T03:15:25.384Z,29.35
2022-11-10T03:17:52.174Z,28.10
2022-11-10T03:20:18.914Z,25.05
2022-11-10T03:22:45.803Z,28.08
2022-11-10T03:25:12.716Z,31.10
2022-11-10T03:27:39.262Z,25.85
2022-11-10T03:30:06.769Z,22.85
2022-11-10T03:32:33.257Z,23.75
2022-11-10T03:34:59.673Z,26.23
2022-11-10T03:37:26.089Z,29.33
2022-11-10T03:39:52.458Z,27.90
2022-11-10T03:42:18.883Z,28.65
2022-11-10T03:44:45.323Z,26.98
2022-11-10T03:47:11.725Z,25.50
2022-11-10T03:49:38.153Z,28.52
2022-11-10T03:52:04.664Z,24.52
2022-11-10T03:54:31.084Z,27.98
2022-11-10T03:56:57.464Z,30.65
2022-11-10T03:59:23.816Z,30.23
2022-11-10T04:01:50.315Z,28.20
2022-11-10T04:04:35.085Z,32.72
2022-11-10T04:07:30.432Z,29.40
2022-11-10T04:09:56.874Z,32.17
2022-11-10T04:12:42.053Z,27.50
2022-11-10T04:15:30.033Z,26.27
2022-11-10T04:18:16.519Z,28.55
2022-11-10T04:20:42.919Z,27.35
2022-11-10T04:23:27.606Z,26.63
2022-11-10T04:26:14.293Z,28.17
2022-11-10T04:28:41.297Z,23.73
2022-11-10T04:31:08.360Z,32.45
2022-11-10T04:33:35.949Z,31.15
2022-11-10T04:36:02.457Z,29.92
2022-11-10T04:38:28.949Z,27.17
2022-11-10T04:40:55.404Z,29.85
2022-11-10T04:43:22.196Z,29.67
2022-11-10T04:45:49.090Z,33.83
2022-11-10T04:48:15.501Z,25.58
2022-11-10T04:50:41.915Z,24.70
2022-11-10T04:53:08.377Z,30.65
2022-11-10T04:55:34.750Z,29.27
2022-11-10T04:58:01.141Z,29.88
2022-11-10T05:00:27.548Z,31.80
2022-11-10T05:02:53.982Z,32.45
2022-11-10T05:05:20.379Z,30.45
2022-11-10T05:07:49.742Z,29.83
2022-11-10T05:10:16.252Z,34.33
2022-11-10T05:12:42.642Z,34.58
2022-11-10T05:15:09.640Z,28.77
2022-11-10T05:17:36.046Z,28.20
2022-11-10T05:20:02.500Z,31.52
2022-11-10T05:22:28.895Z,28.27
2022-11-10T05:24:55.343Z,33.58
2022-11-10T05:27:21.970Z,30.90
2022-11-10T05:29:48.364Z,29.38
2022-11-10T05:32:14.748Z,31.50
2022-11-10T05:34:41.193Z,32.08
2022-11-10T05:37:07.627Z,29.85
2022-11-10T05:39:33.990Z,33.83
2022-11-10T05:42:00.413Z,26.85
2022-11-10T05:44:26.772Z,29.80
2022-11-10T05:46:53.160Z,31.15
2022-11-10T05:49:19.624Z,28.85
2022-11-10T05:51:46.013Z,34.63
2022-11-10T05:54:12.377Z,31.10
2022-11-10T05:56:38.761Z,30.40
2022-11-10T05:59:05.169Z,30.48
2022-11-10T06:01:31.594Z,29.88
2022-11-10T06:03:58.047Z,36.17
2022-11-10T06:06:24.457Z,31.77
2022-11-10T06:08:51.940Z,31.58
2022-11-10T06:11:18.710Z,34.20
2022-11-10T06:13:45.109Z,28.30
2022-11-10T06:16:11.498Z,36.20
2022-11-10T06:18:37.877Z,34.88
2022-11-10T06:21:04.356Z,28.65
2022-11-10T06:23:30.745Z,33.75
2022-11-10T06:25:57.155Z,31.88
2022-11-10T06:28:23.540Z,36.10
2022-11-10T06:30:49.890Z,35.03
2022-11-10T06:33:16.275Z,34.30
2022-11-10T06:35:42.662Z,30.45
2022-11-10T06:38:12.787Z,37.30
2022-11-10T06:40:39.217Z,32.78
2022-11-10T06:43:05.705Z,35.20
2022-11-10T06:45:32.131Z,32.88
2022-11-10T06:48:05.800Z,35.55
2022-11-10T06:50:32.208Z,35.65
2022-11-10T06:52:59.648Z,29.17
2022-11-10T06:55:26.313Z,34.15
2022-11-10T06:57:52.882Z,33.75
2022-11-10T07:00:19.542Z,31.35
2022-11-10T07:02:46.144Z,29.00
2022-11-10T07:05:12.651Z,33.72
2022-11-10T07:07:46.797Z,28.33
2022-11-10T07:10:13.792Z,29.33
2022-11-10T07:12:40.196Z,29.38
2022-11-10T07:15:07.252Z,32.40
2022-11-10T07:17:39.716Z,25.75
2022-11-10T07:20:06.830Z,28.27
2022-11-10T07:22:34.453Z,31.23
2022-11-10T07:25:00.865Z,27.33
2022-11-10T07:27:27.237Z,27.98
2022-11-10T07:29:53.653Z,28.02
2022-11-10T07:32:20.030Z,28.65
2022-11-10T07:34:46.498Z,26.30
2022-11-10T07:37:12.905Z,29.33
2022-11-10T07:39:39.387Z,29.00
2022-11-10T07:42:05.750Z,29.02
2022-11-10T07:44:32.114Z,30.55
2022-11-10T07:46:58.842Z,31.08
2022-11-10T07:49:25.300Z,26.90
2022-11-10T07:51:51.696Z,31.15
2022-11-10T07:54:18.138Z,31.70
2022-11-10T07:56:45.191Z,32.42
2022-11-10T07:59:11.568Z,29.95
2022-11-10T08:01:37.975Z,27.92
2022-11-10T08:04:04.514Z,25.05
2022-11-10T08:06:35.966Z,32.35
2022-11-10T08:09:02.764Z,32.17
2022-11-10T08:11:29.116Z,31.73
2022-11-10T08:13:55.482Z,28.13
2022-11-10T08:16:21.935Z,29.20
2022-11-10T08:18:48.338Z,26.30
2022-11-10T08:21:14.728Z,27.63
2022-11-10T08:23:41.109Z,30.02
2022-11-10T08:26:07.507Z,27.40
2022-11-10T08:28:33.964Z,26.65
2022-11-10T08:31:05.682Z,31.25
2022-11-10T08:33:32.668Z,35.75
2022-11-10T08:36:01.198Z,26.35
2022-11-10T08:38:27.557Z,28.92
2022-11-10T08:40:55.938Z,30.83
2022-11-10T08:43:22.580Z,30.85
2022-11-10T08:45:49.697Z,36.95
2022-11-10T08:48:18.877Z,32.58
2022-11-10T08:50:45.688Z,30.42
2022-11-10T08:53:17.103Z,28.70
2022-11-10T08:55:46.055Z,27.83
2022-11-10T08:58:17.585Z,28.20
2022-11-10T09:00:44.543Z,28.00
2022-11-10T09:03:13.684Z,25.60
2022-11-10T09:05:40.577Z,21.75
2022-11-10T09:08:07.115Z,29.60
2022-11-10T09:10:35.937Z,27.40
2022-11-10T09:13:03.687Z,24.30
2022-11-10T09:15:31.025Z,27.73
2022-11-10T09:18:01.882Z,30.98
2022-11-10T09:20:29.731Z,18.33
2022-11-10T09:22:56.489Z,24.15
2022-11-10T09:25:23.560Z,21.75
2022-11-10T09:27:49.979Z,20.20
2022-11-10T09:30:18.264Z,18.77
2022-11-10T09:32:46.682Z,17.05
2022-11-10T09:35:13.593Z,20.75
2022-11-10T09:37:40.399Z,21.92
2022-11-10T09:40:11.756Z,22.08
2022-11-10T09:42:42.762Z,22.00
2022-11-10T09:45:32.907Z,21.20
2022-11-10T09:48:22.093Z,20.92
2022-11-10T09:50:57.295Z,21.15
2022-11-10T09:53:49.916Z,24.02
2022-11-10T09:56:30.528Z,22.77
2022-11-10T09:58:56.950Z,19.85
2022-11-10T10:01:41.178Z,18.58
2022-11-10T10:04:28.045Z,25.63
2022-11-10T10:07:23.094Z,17.05
2022-11-10T10:09:59.572Z,27.80
2022-11-10T10:12:47.745Z,22.83
2022-11-10T10:15:20.792Z,20.30
2022-11-10T10:18:13.032Z,16.13
2022-11-10T10:20:51.310Z,19.98
2022-11-10T10:23:46.882Z,16.65
2022-11-10T10:26:17.090Z,14.65
2022-11-10T10:28:47.648Z,16.85
2022-11-10T10:31:19.749Z,17.05
2022-11-10T10:33:46.987Z,15.32
2022-11-10T10:36:21.057Z,19.55
2022-11-10T10:38:51.009Z,18.92
2022-11-10T10:41:23.958Z,19.50
2022-11-10T10:43:52.426Z,15.90
2022-11-10T10:46:27.666Z,20.42
2022-11-10T10:49:28.494Z,20.13
2022-11-10T10:52:02.691Z,14.27
2022-11-10T10:54:31.372Z,14.00
2022-11-10T10:57:05.856Z,11.27
2022-11-10T10:59:32.853Z,19.70
2022-11-10T11:01:59.422Z,16.00
2022-11-10T11:04:27.557Z,16.65
2022-11-10T11:06:58.137Z,17.20
2022-11-10T11:09:27.202Z,14.30
2022-11-10T11:12:01.393Z,16.95
2022-11-10T11:14:29.677Z,13.75
2022-11-10T11:17:04.451Z,13.05
2022-11-10T11:19:34.015Z,12.73
2022-11-10T11:22:18.698Z,16.77
2022-11-10T11:24:48.079Z,13.45
2022-11-10T11:27:19.027Z,14.15
2022-11-10T11:29:54.580Z,14.75
2022-11-10T11:32:42.245Z,16.50
2022-11-10T11:35:24.846Z,13.82
2022-11-10T11:38:13.828Z,14.25
2022-11-10T11:40:59.057Z,19.70
2022-11-10T11:43:57.543Z,14.00
2022-11-10T11:46:48.895Z,15.25
2022-11-10T11:49:27.733Z,14.02
2022-11-10T11:52:04.795Z,16.50
2022-11-10T11:54:55.388Z,13.95
2022-11-10T11:57:38.800Z,14.00
2022-11-10T12:00:13.449Z,19.08
2022-11-10T12:03:03.019Z,18.38
2022-11-10T12:05:36.629Z,13.85
2022-11-10T12:08:15.761Z,17.90
2022-11-10T12:10:48.315Z,14.50
2022-11-10T12:16:10.787Z,12.68
2022-11-10T12:18:49.473Z,16.95
2022-11-10T12:21:26.442Z,12.68
2022-11-10T12:24:10.515Z,16.38
2022-11-10T12:26:40.174Z,13.50
2022-11-10T12:29:21.077Z,14.35
2022-11-10T12:31:47.921Z,10.18
2022-11-10T12:34:34.385Z,12.00
2022-11-10T12:37:05.231Z,12.45
2022-11-10T12:39:41.252Z,12.95
2022-11-10T12:42:13.743Z,10.40
2022-11-10T12:47:16.633Z,12.48
2022-11-10T12:49:56.574Z,13.52
2022-11-10T12:52:28.440Z,14.48
2022-11-10T12:54:54.923Z,16.15
2022-11-10T12:57:26.799Z,13.63
2022-11-10T12:59:56.109Z,18.13
2022-11-10T13:02:35.737Z,14.02
2022-11-10T13:05:14.212Z,15.05
2022-11-10T13:07:42.082Z,15.05
2022-11-10T13:10:27.993Z,14.20
2022-11-10T13:13:03.541Z,15.77
2022-11-10T13:15:38.981Z,12.10
2022-11-10T13:18:22.582Z,13.60
2022-11-10T13:20:54.694Z,9.75
2022-11-10T13:23:31.988Z,14.02
2022-11-10T13:26:09.479Z,14.95
2022-11-10T13:28:48.058Z,10.82
2022-11-10T13:31:38.672Z,13.07
2022-11-10T13:34:08.177Z,16.15
2022-11-10T13:36:45.455Z,15.95
2022-11-10T13:39:24.349Z,10.57
2022-11-10T13:41:52.085Z,11.77
2022-11-10T13:44:39.289Z,11.57
2022-11-10T13:47:08.862Z,9.85
2022-11-10T13:50:00.918Z,10.43
2022-11-10T13:52:47.625Z,14.50
2022-11-10T13:55:35.855Z,9.75
2022-11-10T13:58:18.239Z,12.68
2022-11-10T14:00:49.467Z,15.82
2022-11-10T14:03:49.931Z,12.30
2022-11-10T14:06:47.181Z,10.48
2022-11-10T14:09:29.130Z,13.90
2022-11-10T14:12:00.222Z,11.93
2022-11-10T14:15:17.391Z,14.18
2022-11-10T14:17:55.094Z,11.57
2022-11-10T14:20:24.711Z,15.27
2022-11-10T14:22:52.461Z,12.88
2022-11-10T14:25:26.471Z,10.90
2022-11-10T14:27:57.893Z,11.80
2022-11-10T14:30:28.868Z,8.25
2022-11-10T14:33:01.275Z,7.55
2022-11-10T14:35:30.695Z,13.32
2022-11-10T14:37:58.921Z,13.50
2022-11-10T14:40:26.354Z,11.32
2022-11-10T14:42:52.789Z,10.10
2022-11-10T14:45:19.360Z,9.48
2022-11-10T14:47:54.200Z,10.27
2022-11-10T14:50:21.960Z,13.82
2022-11-10T14:52:51.369Z,13.27
2022-11-10T14:55:26.912Z,9.98
2022-11-10T14:58:11.676Z,13.45
2022-11-10T15:00:39.518Z,10.65
2022-11-10T15:03:07.488Z,13.82
2022-11-10T15:05:34.105Z,12.32
2022-11-10T15:08:01.828Z,13.77
2022-11-10T15:10:46.251Z,9.52
2022-11-10T15:13:12.513Z,12.75
2022-11-10T15:15:40.184Z,12.13
2022-11-10T15:18:07.477Z,10.93
2022-11-10T15:20:39.875Z,13.30
2022-11-10T15:23:22.822Z,12.52
2022-11-10T15:25:53.200Z,9.65
2022-11-10T15:28:27.824Z,10.68
2022-11-10T15:30:57.847Z,18.75
2022-11-10T15:33:26.726Z,15.57
2022-11-10T15:35:54.420Z,15.75
2022-11-10T15:38:24.125Z,10.55
2022-11-10T15:40:52.121Z,12.40
2022-11-10T15:43:26.429Z,13.70
2022-11-10T15:45:54.855Z,10.18
2022-11-10T15:48:21.720Z,12.55
2022-11-10T15:50:51.121Z,12.48
2022-11-10T15:53:27.095Z,10.95
2022-11-10T15:55:53.524Z,14.98
2022-11-10T15:58:21.865Z,14.07
2022-11-10T16:00:49.176Z,13.82
2022-11-10T16:03:18.341Z,12.63
2022-11-10T16:05:44.870Z,13.27
2022-11-10T16:08:19.661Z,9.77
2022-11-10T16:10:48.312Z,11.77
2022-11-10T16:13:17.878Z,10.95
2022-11-10T16:15:45.525Z,14.00
2022-11-10T16:18:30.490Z,10.85
2022-11-10T16:20:57.138Z,14.10
2022-11-10T16:23:25.577Z,14.10
2022-11-10T16:25:54.510Z,14.93
2022-11-10T16:28:24.496Z,18.38
2022-11-10T16:30:51.851Z,11.98
2022-11-10T16:33:20.421Z,13.80
2022-11-10T16:35:49.619Z,12.70
2022-11-10T16:38:24.619Z,9.45
2022-11-10T16:40:55.463Z,17.13
2022-11-10T16:43:21.909Z,17.65
2022-11-10T16:45:50.250Z,14.25
2022-11-10T16:48:18.754Z,15.07
2022-11-10T16:50:46.127Z,13.00
2022-11-10T16:53:17.214Z,15.60
2022-11-10T16:55:44.595Z,12.32
2022-11-10T16:58:11.753Z,11.10
2022-11-10T17:00:38.824Z,12.13
2022-11-10T17:03:11.331Z,10.52
2022-11-10T17:08:04.314Z,10.73
2022-11-10T17:10:30.973Z,13.68
2022-11-10T17:12:57.367Z,15.90
2022-11-10T17:15:24.064Z,12.43
2022-11-10T17:17:52.102Z,11.43
2022-11-10T17:20:22.985Z,12.88
2022-11-10T17:22:50.395Z,14.20
2022-11-10T17:25:23.595Z,10.43
2022-11-10T17:27:50.321Z,10.32
2022-11-10T17:30:16.951Z,13.25
2022-11-10T17:33:04.186Z,11.65
2022-11-10T17:35:30.805Z,13.43
2022-11-10T17:37:57.560Z,10.35
2022-11-10T17:40:25.819Z,10.38
2022-11-10T17:42:52.313Z,13.45
2022-11-10T17:45:24.435Z,8.85
2022-11-10T17:47:50.816Z,10.88
2022-11-10T17:50:19.089Z,13.88
2022-11-10T17:52:45.720Z,8.43
2022-11-10T17:55:20.317Z,13.07
2022-11-10T17:57:47.227Z,8.68
2022-11-10T18:00:15.072Z,15.10
2022-11-10T18:02:42.711Z,10.80
2022-11-10T18:05:17.233Z,12.43
2022-11-10T18:07:44.410Z,13.00
2022-11-10T18:10:13.295Z,14.23
2022-11-10T18:12:40.669Z,11.20
2022-11-10T18:15:13.658Z,12.07
2022-11-10T18:17:41.231Z,12.15
2022-11-10T18:20:09.405Z,11.07
2022-11-10T18:22:36.351Z,11.95
2022-11-10T18:25:02.819Z,11.88
2022-11-10T18:27:29.465Z,12.88
2022-11-10T18:29:55.884Z,11.80
2022-11-10T18:32:23.274Z,15.65
2022-11-10T18:34:49.955Z,10.93
2022-11-10T18:37:17.480Z,10.43
2022-11-10T18:39:43.962Z,11.57
2022-11-10T18:42:10.443Z,11.98
2022-11-10T18:44:37.228Z,10.90
2022-11-10T18:47:04.508Z,8.10
2022-11-10T18:49:31.151Z,11.18
2022-11-10T18:51:58.177Z,9.50
2022-11-10T18:54:25.676Z,10.77
2022-11-10T18:56:52.182Z,9.20
2022-11-10T18:59:18.839Z,10.73
2022-11-10T19:01:45.251Z,10.88
2022-11-10T19:04:12.414Z,11.45
2022-11-10T19:06:39.155Z,8.07
2022-11-10T19:09:05.965Z,6.45
2022-11-10T19:11:33.396Z,9.82
2022-11-10T19:14:03.088Z,6.53
2022-11-10T19:16:30.093Z,8.70
2022-11-10T19:18:57.148Z,11.32
2022-11-10T19:21:27.536Z,8.70
2022-11-10T19:23:55.748Z,12.55
2022-11-10T19:26:23.111Z,13.20
2022-11-10T19:28:49.635Z,10.77
2022-11-10T19:31:18.227Z,13.05
2022-11-10T19:33:45.808Z,9.07
2022-11-10T19:36:20.064Z,9.52
2022-11-10T19:38:46.572Z,5.93
2022-11-10T19:41:18.647Z,12.13
2022-11-10T19:43:47.599Z,9.55
2022-11-10T19:46:23.178Z,10.32
2022-11-10T19:48:49.663Z,10.00
2022-11-10T19:51:17.681Z,10.70
2022-11-10T19:53:46.031Z,9.20
2022-11-10T19:56:15.554Z,10.13
2022-11-10T19:58:43.233Z,10.05
2022-11-10T20:01:11.484Z,8.85
2022-11-10T20:03:39.226Z,9.18
2022-11-10T20:06:11.517Z,9.80
2022-11-10T20:08:38.193Z,10.25
2022-11-10T20:11:09.768Z,10.13
2022-11-10T20:13:36.671Z,11.98
2022-11-10T20:16:04.800Z,7.28
2022-11-10T20:18:31.196Z,6.78
2022-11-10T20:21:05.408Z,9.25
2022-11-10T20:23:31.880Z,7.47
2022-11-10T20:26:10.075Z,10.05
2022-11-10T20:28:38.092Z,10.25
2022-11-10T20:31:07.373Z,9.18
2022-11-10T20:33:34.432Z,10.30
2022-11-10T20:36:05.090Z,10.55
2022-11-10T20:38:31.469Z,11.20
2022-11-10T20:41:06.071Z,8.90
2022-11-10T20:43:34.268Z,9.73
2022-11-10T20:46:00.813Z,10.80
2022-11-10T20:48:29.502Z,10.32
2022-11-10T20:50:55.925Z,6.50
2022-11-10T20:53:22.660Z,10.82
2022-11-10T20:55:53.872Z,8.88
2022-11-10T20:58:20.959Z,10.18
2022-11-10T21:00:47.349Z,8.13
2022-11-10T21:03:13.760Z,9.90
2022-11-10T21:05:40.205Z,7.25
2022-11-10T21:08:06.607Z,12.55
2022-11-10T21:10:32.995Z,13.90
2022-11-10T21:12:59.395Z,9.60
2022-11-10T21:15:25.780Z,7.18
2022-11-10T21:17:52.242Z,7.82
2022-11-10T21:20:18.617Z,10.25
2022-11-10T21:22:45.035Z,11.52
2022-11-10T21:25:11.460Z,11.10
2022-11-10T21:27:37.852Z,8.70
2022-11-10T21:30:05.016Z,8.63
2022-11-10T21:32:33.295Z,8.65
2022-11-10T21:34:59.703Z,7.82
2022-11-10T21:37:26.881Z,8.23
2022-11-10T21:39:53.335Z,8.40
2022-11-10T21:42:21.639Z,9.25
2022-11-10T21:44:48.580Z,9.13
2022-11-10T21:47:15.022Z,8.77
2022-11-10T21:49:41.499Z,9.77
2022-11-10T21:52:08.102Z,15.85
2022-11-10T21:54:34.471Z,28.40
2022-11-10T21:57:00.912Z,27.60
2022-11-10T21:59:27.298Z,11.23
2022-11-10T22:01:53.839Z,8.90
2022-11-10T22:04:20.300Z,6.90
2022-11-10T22:07:05.429Z,6.88
2022-11-10T22:09:50.164Z,9.43
2022-11-10T22:12:35.132Z,9.13
2022-11-10T22:15:20.130Z,11.88
2022-11-10T22:18:04.880Z,9.18
2022-11-10T22:20:31.315Z,6.30
2022-11-10T22:22:57.724Z,9.05
2022-11-10T22:25:24.146Z,7.88
2022-11-10T22:27:50.560Z,13.23
2022-11-10T22:30:16.948Z,10.05
2022-11-10T22:32:43.309Z,9.40
2022-11-10T22:35:29.689Z,7.65
2022-11-10T22:37:56.152Z,7.00
2022-11-10T22:40:40.981Z,7.60
2022-11-10T22:43:27.207Z,9.25
2022-11-10T22:45:53.650Z,10.15
2022-11-10T22:48:25.913Z,10.27
2022-11-10T22:50:56.180Z,9.15
2022-11-10T22:53:23.460Z,10.25
2022-11-10T22:55:50.620Z,7.43
2022-11-10T22:58:17.385Z,7.68
2022-11-10T23:00:46.436Z,8.43
2022-11-10T23:03:14.545Z,8.02
2022-11-10T23:05:40.973Z,8.63
2022-11-10T23:08:07.459Z,8.73
2022-11-10T23:10:33.831Z,9.68
2022-11-10T23:13:00.278Z,8.73
2022-11-10T23:15:26.708Z,5.43
2022-11-10T23:17:54.257Z,7.68
2022-11-10T23:20:20.643Z,7.70
2022-11-10T23:22:47.160Z,7.85
2022-11-10T23:25:13.751Z,8.82
2022-11-10T23:27:40.118Z,8.45
2022-11-10T23:30:06.907Z,9.20
2022-11-10T23:32:33.274Z,8.38
2022-11-10T23:34:59.681Z,8.15
2022-11-10T23:37:26.248Z,9.25
2022-11-10T23:39:52.647Z,7.43
2022-11-10T23:42:19.040Z,7.65
2022-11-10T23:44:45.475Z,7.75
2022-11-10T23:47:11.846Z,7.07
2022-11-10T23:49:38.575Z,8.88
2022-11-10T23:52:05.054Z,9.02
2022-11-10T23:54:31.415Z,9.88
2022-11-10T23:56:57.811Z,11.48
2022-11-10T23:59:24.379Z,9.75
